Time;durP1;ratioP1;P1;durP2;ratioP2;P2;SDS_P1;SDS_P2;PMS_P1;PMS_P2;Temp;Humidity;BMP_temperature;BMP_pressure;BME280_temperature;BME280_humidity;BME280_pressure;Samples;Min_cycle;Max_cycle;Signal;HPM_P1;HPM_P2
2022/08/02 00:01:27;;;;;;;6.65;2.83;;;12.60;99.90;;;;;;5024413;28;20049;-85
2022/08/02 00:03:52;;;;;;;9.13;2.85;;;12.60;99.90;;;;;;5026457;28;20068;-85
2022/08/02 00:06:18;;;;;;;10.10;3.25;;;12.60;99.90;;;;;;5042800;28;20053;-85
2022/08/02 00:08:44;;;;;;;7.97;3.65;;;12.60;99.90;;;;;;5046795;28;20041;-85
2022/08/02 00:11:09;;;;;;;10.07;3.40;;;12.60;99.90;;;;;;5032438;28;20044;-85
2022/08/02 00:13:35;;;;;;;8.95;3.20;;;12.70;99.90;;;;;;5042802;28;20516;-85
2022/08/02 00:16:01;;;;;;;11.82;3.25;;;13.10;99.90;;;;;;5041092;28;20033;-85
2022/08/02 00:18:27;;;;;;;7.80;3.38;;;12.60;99.90;;;;;;5044508;28;20037;-85
2022/08/02 00:20:53;;;;;;;9.63;3.63;;;12.70;99.90;;;;;;5021466;28;20895;-86
2022/08/02 00:23:19;;;;;;;8.80;3.25;;;12.80;99.90;;;;;;5038587;28;20045;-85
2022/08/02 00:25:45;;;;;;;9.73;3.30;;;12.80;99.90;;;;;;5022117;28;20099;-85
2022/08/02 00:28:10;;;;;;;9.05;3.50;;;12.70;99.90;;;;;;5022717;28;20139;-85
2022/08/02 00:30:37;;;;;;;9.55;3.38;;;12.80;99.90;;;;;;5025283;28;20045;-85
2022/08/02 00:33:04;;;;;;;9.52;2.85;;;12.90;99.90;;;;;;5018573;28;20064;-85
2022/08/02 00:35:31;;;;;;;8.52;3.30;;;12.80;99.90;;;;;;5045531;28;20045;-86
2022/08/02 00:37:57;;;;;;;6.88;2.50;;;12.80;99.90;;;;;;5036495;28;20064;-85
2022/08/02 00:40:23;;;;;;;7.72;3.20;;;12.80;99.90;;;;;;5018180;28;20499;-85
2022/08/02 00:43:03;;;;;;;10.00;2.97;;;12.70;99.90;;;;;;5024575;28;20049;-86
2022/08/02 00:45:30;;;;;;;8.63;2.88;;;12.70;99.90;;;;;;5043589;28;20048;-85
2022/08/02 00:47:56;;;;;;;10.13;3.00;;;12.70;99.90;;;;;;5044738;28;20048;-86
2022/08/02 00:50:21;;;;;;;7.28;2.75;;;12.60;99.90;;;;;;5042773;28;20124;-85
2022/08/02 00:52:47;;;;;;;8.43;2.65;;;12.60;99.90;;;;;;5027271;28;20615;-86
2022/08/02 00:55:13;;;;;;;8.07;2.97;;;13.10;99.90;;;;;;5025562;28;20053;-86
2022/08/02 00:57:40;;;;;;;8.90;2.78;;;12.50;99.90;;;;;;5023686;28;20064;-85
2022/08/02 01:00:07;;;;;;;9.63;3.25;;;12.50;99.90;;;;;;5039068;28;20128;-85
2022/08/02 01:02:32;;;;;;;8.45;3.00;;;12.50;99.90;;;;;;5022554;28;20046;-85
2022/08/02 01:04:58;;;;;;;8.05;2.83;;;12.50;99.90;;;;;;5018827;28;20048;-86
2022/08/02 01:07:24;;;;;;;7.53;2.60;;;12.40;99.90;;;;;;5019759;28;20399;-85
2022/08/02 01:09:49;;;;;;;7.45;2.40;;;12.40;99.90;;;;;;5025090;28;20162;-86
2022/08/02 01:12:15;;;;;;;6.85;2.38;;;12.40;99.90;;;;;;5044269;28;20181;-86
2022/08/02 01:14:44;;;;;;;7.82;2.50;;;12.40;99.90;;;;;;5031505;28;20076;-85
2022/08/02 01:17:40;;;;;;;9.93;2.72;;;12.40;99.90;;;;;;5042076;28;20049;-85
2022/08/02 01:20:36;;;;;;;9.15;3.15;;;12.30;99.90;;;;;;5039541;28;20090;-85
2022/08/02 01:23:16;;;;;;;6.45;2.53;;;12.30;99.90;;;;;;5038205;28;20053;-86
2022/08/02 01:26:16;;;;;;;6.57;2.30;;;12.30;99.90;;;;;;5035914;28;20033;-85
2022/08/02 01:28:48;;;;;;;8.32;2.83;;;12.30;99.90;;;;;;5027760;28;20052;-85
2022/08/02 01:31:28;;;;;;;7.50;2.75;;;12.20;99.90;;;;;;5024115;28;20231;-85
2022/08/02 01:34:17;;;;;;;7.10;2.58;;;12.20;99.90;;;;;;5016567;28;20056;-85
2022/08/02 01:36:51;;;;;;;7.65;2.63;;;12.20;99.90;;;;;;5026761;28;20484;-85
2022/08/02 01:39:20;;;;;;;6.00;2.50;;;12.20;99.90;;;;;;5037842;28;20107;-85
2022/08/02 01:41:48;;;;;;;8.02;2.40;;;12.20;99.90;;;;;;5027994;28;20486;-85
2022/08/02 01:44:14;;;;;;;11.50;2.22;;;12.00;99.90;;;;;;5047407;28;20108;-85
2022/08/02 01:46:41;;;;;;;9.48;2.85;;;12.10;99.90;;;;;;5024205;28;20059;-85
2022/08/02 01:49:13;;;;;;;11.90;2.88;;;12.10;99.90;;;;;;5027064;28;20048;-85
2022/08/02 01:54:28;;;;;;;8.95;2.65;;;12.10;99.90;;;;;;5041260;28;20124;-85
2022/08/02 01:56:55;;;;;;;6.75;2.55;;;12.30;99.90;;;;;;5028777;28;20132;-85
2022/08/02 01:59:22;;;;;;;8.40;3.05;;;12.00;99.90;;;;;;5026105;28;20057;-84
2022/08/02 02:01:50;;;;;;;7.75;2.80;;;12.00;99.90;;;;;;5048200;28;20080;-85
2022/08/02 02:04:17;;;;;;;9.30;2.78;;;12.00;99.90;;;;;;5039865;28;20922;-85
2022/08/02 02:06:44;;;;;;;8.80;2.67;;;12.00;99.90;;;;;;5037176;28;20041;-85
2022/08/02 02:09:13;;;;;;;7.38;3.13;;;12.00;99.90;;;;;;5041402;28;20037;-85
2022/08/02 02:11:41;;;;;;;10.60;3.33;;;12.20;99.90;;;;;;5013181;28;20044;-85
2022/08/02 02:14:10;;;;;;;9.60;3.10;;;12.00;99.90;;;;;;5044761;28;20446;-85
2022/08/02 02:16:36;;;;;;;9.63;2.78;;;12.00;99.90;;;;;;5026814;28;20106;-86
2022/08/02 02:19:04;;;;;;;8.88;3.17;;;12.00;99.90;;;;;;5042931;28;20573;-85
2022/08/02 02:21:29;;;;;;;13.85;3.20;;;12.00;99.90;;;;;;5024182;28;20112;-86
2022/08/02 02:23:55;;;;;;;8.90;3.63;;;12.00;99.90;;;;;;5027521;28;20045;-85
2022/08/02 02:26:22;;;;;;;9.45;3.00;;;12.00;99.90;;;;;;5049719;28;20625;-85
2022/08/02 02:28:50;;;;;;;9.27;3.05;;;12.00;99.90;;;;;;5032399;28;20048;-85
2022/08/02 02:31:18;;;;;;;5.68;2.30;;;12.10;99.90;;;;;;5026554;28;20071;-85
2022/08/02 02:33:55;;;;;;;8.13;3.30;;;12.00;99.90;;;;;;5048411;28;20036;-85
2022/08/02 02:36:22;;;;;;;8.40;2.40;;;12.00;99.90;;;;;;5020221;28;20056;-85
2022/08/02 02:38:50;;;;;;;11.23;3.60;;;12.10;99.90;;;;;;5019864;28;20340;-85
2022/08/02 02:41:17;;;;;;;9.27;3.35;;;12.10;99.90;;;;;;5024491;28;20060;-85
2022/08/02 02:43:44;;;;;;;13.23;3.17;;;12.10;99.90;;;;;;5025445;28;20041;-85
2022/08/02 02:46:11;;;;;;;8.35;3.20;;;12.10;99.90;;;;;;5043238;28;20053;-85
2022/08/02 02:48:38;;;;;;;8.15;3.17;;;12.10;99.90;;;;;;5024301;28;20041;-85
2022/08/02 02:51:05;;;;;;;7.57;2.70;;;12.10;99.90;;;;;;5025236;28;20042;-85
2022/08/02 02:53:32;;;;;;;10.32;2.70;;;12.10;99.90;;;;;;5043317;28;20571;-85
2022/08/02 02:55:58;;;;;;;10.25;3.15;;;12.60;99.90;;;;;;5040500;28;20083;-85
2022/08/02 02:58:24;;;;;;;12.95;3.50;;;12.10;99.90;;;;;;5034267;28;20056;-85
2022/08/02 03:03:36;;;;;;;10.38;2.72;;;12.10;99.90;;;;;;5047475;28;20130;-85
2022/08/02 03:06:01;;;;;;;7.68;2.53;;;12.10;99.90;;;;;;5021034;28;20055;-85
2022/08/02 03:08:28;;;;;;;9.52;3.67;;;12.10;99.90;;;;;;5025663;28;20440;-85
2022/08/02 03:10:54;;;;;;;9.48;3.25;;;12.10;99.90;;;;;;5043663;28;20796;-85
2022/08/02 03:13:19;;;;;;;14.07;3.10;;;12.10;99.90;;;;;;5023429;28;20045;-85
2022/08/02 03:15:47;;;;;;;12.05;2.70;;;12.10;99.90;;;;;;5046572;28;20434;-86
2022/08/02 03:18:33;;;;;;;11.52;3.60;;;12.10;99.90;;;;;;5040725;28;20123;-85
2022/08/02 03:21:01;;;;;;;10.55;3.53;;;12.10;99.90;;;;;;5015640;28;20045;-85
2022/08/02 03:23:26;;;;;;;8.55;3.08;;;12.10;99.90;;;;;;5027619;28;20052;-85
2022/08/02 03:25:55;;;;;;;9.27;3.15;;;12.10;99.90;;;;;;5043313;28;20738;-84
2022/08/02 03:28:21;;;;;;;7.75;2.90;;;12.10;99.90;;;;;;5040640;28;20048;-84
2022/08/02 03:30:47;;;;;;;7.30;2.70;;;12.10;99.90;;;;;;5048805;28;20388;-85
2022/08/02 03:33:13;;;;;;;11.25;3.55;;;12.10;99.90;;;;;;5025769;28;20043;-85
2022/08/02 03:35:44;;;;;;;12.90;3.80;;;12.30;99.90;;;;;;5020002;28;20037;-85
2022/08/02 03:38:12;;;;;;;13.23;3.20;;;12.10;99.90;;;;;;5040716;28;20045;-85
2022/08/02 03:40:38;;;;;;;10.52;3.05;;;12.10;99.90;;;;;;5019605;28;20132;-85
2022/08/02 03:43:05;;;;;;;8.73;3.22;;;12.10;99.90;;;;;;5041628;28;20495;-85
2022/08/02 03:45:31;;;;;;;8.10;3.13;;;12.10;99.90;;;;;;5045575;28;20049;-85
2022/08/02 03:47:58;;;;;;;12.32;3.67;;;12.20;99.90;;;;;;5041789;28;20072;-85
2022/08/02 03:50:24;;;;;;;8.32;3.63;;;12.90;99.90;;;;;;5024392;28;20065;-84
2022/08/02 03:52:51;;;;;;;10.38;3.38;;;12.20;99.90;;;;;;5021870;28;20128;-84
2022/08/02 03:55:16;;;;;;;11.23;2.88;;;12.20;99.90;;;;;;5042832;28;20045;-84
2022/08/02 03:57:42;;;;;;;9.43;3.60;;;12.80;99.90;;;;;;5042538;28;20029;-85
2022/08/02 04:00:11;;;;;;;8.63;3.25;;;12.30;99.90;;;;;;5036554;28;20596;-85
2022/08/02 04:02:39;;;;;;;9.93;3.30;;;12.20;99.90;;;;;;5023484;28;20044;-85
2022/08/02 04:05:05;;;;;;;10.65;3.85;;;12.20;99.90;;;;;;5027331;28;20041;-85
2022/08/02 04:07:30;;;;;;;12.55;3.53;;;12.30;99.90;;;;;;5023088;28;20064;-85
2022/08/02 04:09:56;;;;;;;11.05;4.13;;;12.30;99.90;;;;;;5039624;28;20120;-84
2022/08/02 04:12:21;;;;;;;6.13;2.83;;;12.30;99.90;;;;;;5031800;28;20033;-85
2022/08/02 04:14:47;;;;;;;9.50;3.30;;;12.30;99.90;;;;;;5022150;28;20053;-85
2022/08/02 04:17:16;;;;;;;9.82;3.53;;;12.30;99.90;;;;;;5040849;28;20041;-85
2022/08/02 04:19:52;;;;;;;9.50;3.63;;;12.30;99.90;;;;;;5022692;28;20488;-84
2022/08/02 04:22:23;;;;;;;13.20;3.47;;;12.30;99.90;;;;;;5038869;28;20189;-85
2022/08/02 04:24:54;;;;;;;8.45;3.40;;;12.30;99.90;;;;;;5047011;28;20115;-84
2022/08/02 04:27:22;;;;;;;8.68;3.40;;;12.30;99.90;;;;;;5031151;28;20060;-85
2022/08/02 04:29:48;;;;;;;9.05;3.70;;;12.40;99.90;;;;;;5017047;28;20128;-85
2022/08/02 04:32:15;;;;;;;8.50;3.42;;;12.50;99.90;;;;;;5038325;28;20045;-84
2022/08/02 04:34:41;;;;;;;9.63;3.92;;;12.40;99.90;;;;;;5035198;28;20068;-85
2022/08/02 04:37:07;;;;;;;12.43;4.00;;;12.40;99.90;;;;;;5026188;28;20041;-85
2022/08/02 04:39:33;;;;;;;12.90;4.10;;;12.50;99.90;;;;;;5028764;28;20063;-85
2022/08/02 04:41:59;;;;;;;10.18;4.13;;;12.50;99.90;;;;;;5022736;28;20055;-85
2022/08/02 04:44:24;;;;;;;10.32;4.03;;;12.50;99.90;;;;;;5026150;28;20377;-84
2022/08/02 04:46:51;;;;;;;12.27;4.18;;;12.50;99.90;;;;;;5038679;28;20492;-85
2022/08/02 04:49:16;;;;;;;10.38;3.50;;;12.50;99.90;;;;;;5029295;28;20502;-84
2022/08/02 04:51:42;;;;;;;17.05;4.32;;;12.60;99.90;;;;;;5019998;28;20049;-85
2022/08/02 04:54:09;;;;;;;8.63;3.38;;;12.60;99.90;;;;;;5023275;28;20472;-85
2022/08/02 04:56:35;;;;;;;10.68;4.15;;;12.60;99.90;;;;;;5035619;28;20052;-85
2022/08/02 04:59:01;;;;;;;16.00;4.90;;;12.60;99.90;;;;;;5042779;28;20480;-84
2022/08/02 05:01:26;;;;;;;10.18;4.68;;;12.60;99.90;;;;;;5039802;28;20051;-85
2022/08/02 05:03:53;;;;;;;8.57;3.63;;;12.70;99.90;;;;;;5034713;28;20419;-85
2022/08/02 05:06:18;;;;;;;10.57;3.63;;;12.70;99.90;;;;;;5026656;28;20053;-84
2022/08/02 05:08:48;;;;;;;9.85;4.15;;;12.70;99.90;;;;;;5040652;28;20074;-84
2022/08/02 05:11:13;;;;;;;14.88;4.60;;;12.70;99.90;;;;;;5040625;28;20093;-85
2022/08/02 05:13:43;;;;;;;11.38;4.47;;;13.00;99.90;;;;;;5046618;28;20464;-85
2022/08/02 05:16:09;;;;;;;11.15;3.92;;;12.80;99.90;;;;;;5031739;28;20041;-85
2022/08/02 05:18:34;;;;;;;14.40;4.70;;;12.80;99.90;;;;;;5041861;28;20060;-85
2022/08/02 05:21:00;;;;;;;17.50;4.68;;;12.90;99.90;;;;;;5035029;28;20123;-85
2022/08/02 05:23:26;;;;;;;11.57;4.28;;;12.90;99.90;;;;;;5043411;28;20044;-85
2022/08/02 05:25:52;;;;;;;12.55;4.20;;;12.90;99.90;;;;;;5031312;28;20045;-85
2022/08/02 05:28:19;;;;;;;10.57;4.32;;;13.00;99.90;;;;;;5046017;28;20045;-85
2022/08/02 05:30:44;;;;;;;11.90;4.25;;;13.00;99.90;;;;;;5028388;28;20046;-85
2022/08/02 05:33:10;;;;;;;12.27;4.70;;;13.10;99.90;;;;;;5029810;28;20059;-84
2022/08/02 05:35:36;;;;;;;15.93;4.53;;;13.20;99.90;;;;;;5035445;28;20037;-85
2022/08/02 05:38:01;;;;;;;9.82;3.83;;;13.20;99.90;;;;;;5014431;28;20049;-85
2022/08/02 05:40:27;;;;;;;12.57;5.03;;;13.30;99.90;;;;;;5040146;28;20040;-85
2022/08/02 05:42:54;;;;;;;13.82;4.63;;;13.00;99.90;;;;;;5025238;28;20148;-84
2022/08/02 05:45:24;;;;;;;14.25;4.28;;;13.70;99.90;;;;;;5049431;28;20036;-85
2022/08/02 05:47:50;;;;;;;14.02;4.88;;;13.50;99.90;;;;;;5042614;28;20046;-85
2022/08/02 05:50:16;;;;;;;9.93;4.45;;;13.50;99.90;;;;;;5027137;28;20049;-85
2022/08/02 05:52:48;;;;;;;12.30;4.03;;;13.60;99.90;;;;;;5032153;28;20423;-83
2022/08/02 05:55:27;;;;;;;10.35;4.10;;;13.60;99.90;;;;;;5029323;28;20038;-84
2022/08/02 05:58:08;;;;;;;10.63;4.07;;;13.90;99.90;;;;;;5026122;28;20408;-84
2022/08/02 06:00:38;;;;;;;14.43;4.47;;;13.80;99.90;;;;;;5028692;28;20045;-84
2022/08/02 06:03:15;;;;;;;13.98;5.25;;;13.80;99.90;;;;;;5020870;28;20045;-84
2022/08/02 06:05:49;;;;;;;10.02;4.68;;;13.90;99.90;;;;;;5031672;28;20064;-83
2022/08/02 06:08:19;;;;;;;10.75;4.10;;;13.90;99.90;;;;;;5051537;28;20510;-83
2022/08/02 06:10:46;;;;;;;10.45;4.13;;;14.00;99.90;;;;;;5045927;28;20049;-83
2022/08/02 06:13:15;;;;;;;8.32;3.90;;;14.10;99.90;;;;;;5038243;28;20056;-83
2022/08/02 06:15:42;;;;;;;11.85;4.00;;;14.10;99.90;;;;;;5053324;28;20063;-83
2022/08/02 06:18:08;;;;;;;10.80;3.88;;;14.20;99.90;;;;;;5027446;28;20384;-84
2022/08/02 06:20:35;;;;;;;11.68;4.75;;;14.30;99.90;;;;;;5022794;28;20053;-83
2022/08/02 06:23:06;;;;;;;8.75;3.53;;;14.40;99.90;;;;;;5022192;28;20132;-83
2022/08/02 06:25:34;;;;;;;15.45;4.15;;;14.50;99.90;;;;;;5047084;28;20108;-84
2022/08/02 06:28:02;;;;;;;10.55;3.72;;;14.60;99.90;;;;;;5025117;28;20052;-85
2022/08/02 06:30:29;;;;;;;9.93;3.42;;;15.10;99.90;;;;;;5028343;28;20040;-85
2022/08/02 06:32:55;;;;;;;9.85;3.25;;;14.70;99.90;;;;;;5048618;28;20033;-84
2022/08/02 06:35:21;;;;;;;8.85;3.88;;;14.80;99.90;;;;;;5049639;28;20053;-85
2022/08/02 06:37:51;;;;;;;10.65;4.43;;;14.90;99.90;;;;;;5029032;28;20051;-85
2022/08/02 06:40:29;;;;;;;8.95;3.65;;;15.10;99.90;;;;;;5027568;28;20064;-86
2022/08/02 06:43:15;;;;;;;10.70;3.40;;;15.10;99.90;;;;;;5035032;28;20519;-85
2022/08/02 06:45:41;;;;;;;8.68;3.03;;;15.30;99.90;;;;;;5024362;28;20491;-83
2022/08/02 06:48:08;;;;;;;9.50;3.10;;;15.70;99.90;;;;;;5019367;28;20036;-83
2022/08/02 06:50:37;;;;;;;10.93;2.95;;;15.50;99.90;;;;;;5030614;28;20068;-83
2022/08/02 06:53:05;;;;;;;8.65;3.38;;;15.50;99.90;;;;;;5042235;28;20407;-82
2022/08/02 06:55:31;;;;;;;10.75;3.15;;;15.80;99.90;;;;;;5031924;28;20037;-82
2022/08/02 06:57:57;;;;;;;9.75;3.05;;;16.20;99.90;;;;;;5019917;28;20155;-82
2022/08/02 07:00:23;;;;;;;11.32;3.30;;;15.80;99.90;;;;;;5022461;28;20392;-81
2022/08/02 07:02:49;;;;;;;9.63;2.97;;;15.80;99.90;;;;;;5032789;28;20050;-82
2022/08/02 07:05:15;;;;;;;6.80;2.83;;;15.90;99.90;;;;;;5014968;28;20045;-82
2022/08/02 07:07:41;;;;;;;8.52;2.50;;;16.00;99.90;;;;;;5045860;28;20450;-82
2022/08/02 07:10:07;;;;;;;9.82;3.13;;;16.10;99.90;;;;;;5043648;28;20040;-82
2022/08/02 07:12:34;;;;;;;9.32;3.13;;;16.20;99.90;;;;;;5041062;28;20044;-81
2022/08/02 07:15:01;;;;;;;8.77;2.85;;;16.40;99.90;;;;;;5028367;28;20052;-81
2022/08/02 07:17:28;;;;;;;9.40;2.90;;;16.50;99.90;;;;;;5043809;28;20400;-80
2022/08/02 07:19:54;;;;;;;12.38;2.70;;;16.60;99.90;;;;;;5041487;28;20037;-80
2022/08/02 07:22:22;;;;;;;11.82;2.55;;;17.00;99.90;;;;;;5041934;28;20071;-81
2022/08/02 07:24:48;;;;;;;9.27;2.17;;;16.90;99.90;;;;;;5025485;28;20041;-81
2022/08/02 07:27:13;;;;;;;6.93;2.15;;;17.20;99.90;;;;;;5029194;28;20045;-81
2022/08/02 07:29:40;;;;;;;7.63;2.00;;;17.10;99.90;;;;;;5041969;28;20049;-80
2022/08/02 07:32:06;;;;;;;7.47;2.05;;;17.70;99.90;;;;;;5045157;28;20052;-81
2022/08/02 07:34:31;;;;;;;8.07;2.08;;;17.30;99.90;;;;;;5040226;28;20036;-80
2022/08/02 07:36:57;;;;;;;7.03;2.40;;;17.50;99.90;;;;;;5043237;28;20038;-81
2022/08/02 07:39:23;;;;;;;7.68;2.00;;;17.60;99.90;;;;;;5035896;28;20060;-80
2022/08/02 07:41:50;;;;;;;4.70;1.60;;;17.80;99.90;;;;;;5040434;28;20041;-80
2022/08/02 07:44:20;;;;;;;7.20;2.20;;;18.10;99.90;;;;;;5038353;28;20072;-81
2022/08/02 07:46:46;;;;;;;8.50;1.83;;;18.20;99.90;;;;;;5037218;28;20052;-81
2022/08/02 07:49:17;;;;;;;5.18;1.33;;;18.40;99.90;;;;;;5020741;28;20045;-81
2022/08/02 07:51:44;;;;;;;8.00;1.95;;;18.50;99.90;;;;;;5041835;28;20049;-80
2022/08/02 07:54:10;;;;;;;6.07;1.63;;;18.60;99.90;;;;;;5020536;28;20049;-82
2022/08/02 07:56:36;;;;;;;6.05;1.58;;;18.80;99.90;;;;;;5029468;28;20101;-81
2022/08/02 07:59:02;;;;;;;4.80;1.25;;;19.00;99.90;;;;;;5041487;28;20060;-80
2022/08/02 08:01:28;;;;;;;6.43;1.08;;;19.20;99.90;;;;;;5022936;28;20050;-81
2022/08/02 08:03:54;;;;;;;4.82;1.40;;;19.20;99.90;;;;;;5041129;28;20443;-81
2022/08/02 08:06:20;;;;;;;7.53;1.40;;;19.30;99.90;;;;;;5045646;28;20049;-81
2022/08/02 08:08:46;;;;;;;3.50;1.33;;;19.40;99.90;;;;;;5047307;28;20043;-80
2022/08/02 08:11:12;;;;;;;4.15;1.38;;;19.60;99.90;;;;;;5049278;28;20450;-81
2022/08/02 08:13:37;;;;;;;4.55;1.27;;;20.10;99.90;;;;;;5030914;28;20080;-81
2022/08/02 08:16:03;;;;;;;4.25;1.30;;;19.90;99.90;;;;;;5029314;28;20049;-81
2022/08/02 08:18:29;;;;;;;5.03;1.00;;;20.00;99.90;;;;;;5048662;28;20037;-81
2022/08/02 08:20:54;;;;;;;3.13;0.93;;;20.10;99.90;;;;;;5048770;28;20145;-80
2022/08/02 08:23:20;;;;;;;3.35;0.80;;;20.10;99.90;;;;;;5042745;28;20064;-81
2022/08/02 08:25:46;;;;;;;3.75;0.88;;;20.20;99.90;;;;;;5040746;28;20060;-81
2022/08/02 08:28:11;;;;;;;3.65;0.80;;;20.20;99.90;;;;;;5029573;28;20057;-80
2022/08/02 08:30:40;;;;;;;4.05;0.50;;;20.30;99.90;;;;;;5046979;28;20041;-80
2022/08/02 08:33:05;;;;;;;2.33;0.60;;;20.40;99.70;;;;;;5049297;28;20048;-81
2022/08/02 08:35:34;;;;;;;6.05;0.93;;;20.50;99.90;;;;;;5037797;28;20048;-81
2022/08/02 08:38:00;;;;;;;3.20;0.82;;;20.80;98.50;;;;;;5048929;28;20052;-81
2022/08/02 08:40:26;;;;;;;3.08;0.80;;;20.70;98.50;;;;;;5048167;28;20400;-81
2022/08/02 08:42:51;;;;;;;2.53;0.70;;;20.70;98.20;;;;;;5030296;28;20044;-80
2022/08/02 08:45:17;;;;;;;3.40;0.60;;;20.80;98.50;;;;;;5024874;28;20099;-80
2022/08/02 08:47:46;;;;;;;3.80;0.75;;;20.90;97.80;;;;;;5052523;28;20051;-81
2022/08/02 08:50:23;;;;;;;2.65;0.75;;;21.00;98.00;;;;;;5030419;28;20041;-80
2022/08/02 08:52:56;;;;;;;2.88;0.85;;;21.10;97.90;;;;;;5050968;28;20041;-80
2022/08/02 08:55:25;;;;;;;3.25;0.70;;;21.20;98.10;;;;;;5025190;28;20385;-84
2022/08/02 08:57:52;;;;;;;3.08;1.02;;;21.30;97.20;;;;;;5047932;28;20075;-82
2022/08/02 09:00:18;;;;;;;2.72;0.82;;;21.40;97.60;;;;;;5051078;28;20040;-80
2022/08/02 09:02:44;;;;;;;6.88;0.90;;;21.50;98.40;;;;;;5048754;28;20068;-79
2022/08/02 09:05:11;;;;;;;3.08;0.82;;;21.60;98.30;;;;;;5049899;28;20053;-80
2022/08/02 09:07:37;;;;;;;3.42;0.80;;;21.70;97.60;;;;;;5046727;28;20044;-82
2022/08/02 09:10:36;;;;;;;6.90;0.90;;;21.80;98.30;;;;;;5029316;28;20053;-82
2022/08/02 09:13:16;;;;;;;2.65;0.70;;;21.90;97.40;;;;;;5030981;28;20048;-83
2022/08/02 09:16:05;;;;;;;2.72;1.00;;;22.00;97.20;;;;;;5033824;28;20483;-81
2022/08/02 09:18:37;;;;;;;3.25;1.00;;;22.10;97.70;;;;;;5044007;28;20080;-84
2022/08/02 09:21:05;;;;;;;3.15;1.00;;;22.20;97.50;;;;;;5045226;28;20077;-82
2022/08/02 09:23:39;;;;;;;1.52;0.75;;;22.30;97.50;;;;;;5043062;28;20130;-82
2022/08/02 09:26:11;;;;;;;4.18;0.88;;;22.30;97.00;;;;;;5043523;28;20398;-82
2022/08/02 09:28:39;;;;;;;4.95;1.00;;;22.40;97.00;;;;;;5032326;28;20121;-84
2022/08/02 09:31:14;;;;;;;5.03;1.10;;;22.40;96.90;;;;;;5033268;28;20043;-82
2022/08/02 09:33:42;;;;;;;4.10;1.20;;;22.60;97.20;;;;;;5024993;28;20048;-80
2022/08/02 09:36:13;;;;;;;4.05;1.20;;;22.70;96.60;;;;;;5031939;28;20510;-87
2022/08/02 09:38:40;;;;;;;7.57;1.05;;;22.80;96.10;;;;;;5024890;28;20474;-80
2022/08/02 09:41:20;;;;;;;4.63;1.05;;;22.80;96.50;;;;;;5050735;28;20041;-80
2022/08/02 09:43:46;;;;;;;2.35;1.00;;;22.90;95.90;;;;;;5049693;28;20037;-80
2022/08/02 09:46:14;;;;;;;5.45;1.10;;;23.10;96.10;;;;;;5030250;28;20503;-82
2022/08/02 09:48:57;;;;;;;5.03;1.23;;;23.20;96.30;;;;;;5033101;28;20052;-83
2022/08/02 09:51:25;;;;;;;5.32;1.40;;;23.40;96.30;;;;;;5050492;28;20099;-84
2022/08/02 09:53:55;;;;;;;4.93;1.30;;;23.50;96.60;;;;;;5043805;28;20049;-83
2022/08/02 09:56:24;;;;;;;1.88;0.90;;;23.60;95.90;;;;;;5033157;28;20134;-83
2022/08/02 09:58:52;;;;;;;6.43;1.25;;;23.70;96.00;;;;;;5048592;28;20140;-83
2022/08/02 10:01:20;;;;;;;3.63;1.52;;;23.90;95.90;;;;;;5032266;28;20037;-82
2022/08/02 10:04:00;;;;;;;4.88;1.75;;;23.90;96.00;;;;;;5043757;28;20049;-86
2022/08/02 10:06:26;;;;;;;5.55;1.83;;;24.00;96.50;;;;;;5032254;28;20052;-85
2022/08/02 10:08:53;;;;;;;4.65;1.45;;;24.00;96.00;;;;;;5024751;28;20048;-85
2022/08/02 10:11:20;;;;;;;4.25;1.30;;;24.10;96.00;;;;;;5027177;28;20240;-85
2022/08/02 10:13:46;;;;;;;4.97;1.42;;;24.10;95.60;;;;;;5046325;28;20047;-85
2022/08/02 10:16:13;;;;;;;6.70;2.13;;;24.20;96.00;;;;;;5026253;28;20049;-85
2022/08/02 10:18:38;;;;;;;4.25;1.50;;;24.30;95.80;;;;;;5041520;28;20045;-85
2022/08/02 10:21:08;;;;;;;6.05;1.98;;;24.30;96.10;;;;;;5023685;28;20037;-85
2022/08/02 10:23:37;;;;;;;4.35;1.67;;;24.30;95.30;;;;;;5046848;28;20048;-86
2022/08/02 10:26:04;;;;;;;6.38;1.90;;;24.40;96.10;;;;;;5037083;28;20564;-85
2022/08/02 10:28:30;;;;;;;4.63;1.83;;;24.50;96.40;;;;;;5039535;28;20484;-86
2022/08/02 10:31:00;;;;;;;9.35;1.92;;;24.50;96.30;;;;;;5034954;28;20118;-86
2022/08/02 10:33:28;;;;;;;6.97;1.90;;;24.40;96.40;;;;;;5028805;28;20041;-84
2022/08/02 10:35:58;;;;;;;3.75;1.70;;;24.60;96.70;;;;;;5044117;28;20080;-82
2022/08/02 10:38:25;;;;;;;5.80;2.03;;;24.70;96.60;;;;;;5041297;28;20756;-82
2022/08/02 10:40:53;;;;;;;4.75;1.60;;;24.70;97.00;;;;;;5040357;28;20044;-83
2022/08/02 10:43:31;;;;;;;6.03;2.13;;;24.80;97.10;;;;;;5037778;28;20052;-82
2022/08/02 10:46:22;;;;;;;4.82;1.65;;;25.00;97.20;;;;;;5037310;28;20040;-82
2022/08/02 10:49:06;;;;;;;5.03;1.95;;;25.10;97.10;;;;;;5025283;28;20128;-82
2022/08/02 10:51:51;;;;;;;9.02;2.60;;;25.20;97.40;;;;;;5046529;28;20067;-83
2022/08/02 10:54:19;;;;;;;7.13;2.13;;;25.40;97.30;;;;;;5042693;28;20496;-82
2022/08/02 10:56:46;;;;;;;4.32;2.25;;;25.50;97.30;;;;;;5037187;28;20041;-83
2022/08/02 10:59:32;;;;;;;6.32;2.40;;;25.60;97.20;;;;;;5025657;28;20554;-82
2022/08/02 11:02:00;;;;;;;6.85;2.30;;;25.70;97.10;;;;;;5041193;28;20037;-82
2022/08/02 11:04:35;;;;;;;5.82;2.22;;;25.70;97.10;;;;;;5028495;28;20499;-82
2022/08/02 11:07:30;;;;;;;9.50;2.30;;;25.80;96.70;;;;;;5031696;28;20122;-81
2022/08/02 11:09:58;;;;;;;8.68;2.50;;;26.00;97.20;;;;;;5048139;28;20044;-83
2022/08/02 11:12:23;;;;;;;6.00;1.73;;;26.10;97.40;;;;;;5031441;28;20041;-82
2022/08/02 11:15:04;;;;;;;7.13;2.28;;;26.30;96.70;;;;;;5044467;28;20392;-82
2022/08/02 11:17:52;;;;;;;5.05;1.52;;;26.30;95.20;;;;;;5031093;28;20083;-81
2022/08/02 11:20:19;;;;;;;3.42;1.63;;;26.50;95.40;;;;;;5031073;28;20099;-81
2022/08/02 11:22:46;;;;;;;4.88;1.50;;;26.60;95.80;;;;;;5048697;28;20127;-83
2022/08/02 11:25:21;;;;;;;5.13;1.70;;;26.70;95.60;;;;;;5031138;28;20094;-83
2022/08/02 11:27:47;;;;;;;6.40;2.00;;;26.70;95.40;;;;;;5051046;28;20118;-83
2022/08/02 11:30:14;;;;;;;5.45;1.70;;;26.70;95.30;;;;;;5050876;28;20055;-83
2022/08/02 11:32:40;;;;;;;6.43;2.00;;;26.80;95.60;;;;;;5029171;28;20045;-86
2022/08/02 11:35:06;;;;;;;5.47;2.25;;;26.80;94.70;;;;;;5044198;28;20044;-83
2022/08/02 11:37:38;;;;;;;5.30;2.47;;;26.80;95.40;;;;;;5028976;28;20535;-83
2022/08/02 11:40:06;;;;;;;6.53;1.90;;;26.70;95.20;;;;;;5031197;28;20041;-83
2022/08/02 11:42:33;;;;;;;5.22;2.03;;;26.60;95.60;;;;;;5051171;28;20131;-83
2022/08/02 11:44:59;;;;;;;7.18;2.15;;;26.50;95.70;;;;;;5050276;28;20033;-83
2022/08/02 11:47:25;;;;;;;3.83;1.80;;;26.50;95.80;;;;;;5050623;28;20041;-83
2022/08/02 11:49:51;;;;;;;6.20;2.10;;;26.50;96.20;;;;;;5048427;28;20059;-83
2022/08/02 11:52:17;;;;;;;4.93;1.90;;;26.50;96.30;;;;;;5047432;28;20071;-83
2022/08/02 11:54:43;;;;;;;7.30;2.45;;;26.70;96.50;;;;;;5045260;28;20033;-84
2022/08/02 11:57:15;;;;;;;5.25;1.88;;;26.80;95.70;;;;;;5046203;28;20041;-83
2022/08/02 11:59:43;;;;;;;8.63;2.30;;;26.90;95.90;;;;;;5044526;28;20829;-84
2022/08/02 12:02:09;;;;;;;5.93;2.15;;;26.90;95.90;;;;;;5049817;28;20041;-84
2022/08/02 12:04:36;;;;;;;5.88;2.70;;;27.10;95.60;;;;;;5049290;28;20045;-84
2022/08/02 12:07:03;;;;;;;6.15;2.05;;;27.00;95.20;;;;;;5049358;28;20044;-84
2022/08/02 12:09:31;;;;;;;5.00;2.00;;;27.10;95.70;;;;;;5032307;28;20073;-84
2022/08/02 12:11:57;;;;;;;5.82;2.20;;;27.20;95.90;;;;;;5049487;28;20461;-84
2022/08/02 12:14:25;;;;;;;6.72;2.38;;;27.30;95.50;;;;;;5048729;28;20153;-84
2022/08/02 12:19:37;;;;;;;4.78;1.65;;;27.30;95.50;;;;;;5042860;28;20076;-84
2022/08/02 12:22:06;;;;;;;3.42;1.50;;;27.30;95.80;;;;;;5048037;28;20057;-84
2022/08/02 12:24:33;;;;;;;5.70;1.55;;;27.30;95.60;;;;;;5046576;28;20045;-82
2022/08/02 12:26:58;;;;;;;3.30;1.40;;;27.40;94.30;;;;;;5030252;28;20063;-83
2022/08/02 12:29:36;;;;;;;4.65;1.45;;;27.40;95.00;;;;;;5049603;28;20523;-83
2022/08/02 12:32:02;;;;;;;8.15;1.25;;;27.30;95.40;;;;;;5046294;28;20053;-83
2022/08/02 12:34:29;;;;;;;4.43;1.20;;;27.30;95.50;;;;;;5040048;28;20033;-83
2022/08/02 12:37:03;;;;;;;4.22;1.40;;;27.20;94.80;;;;;;5042838;28;20057;-83
2022/08/02 12:39:37;;;;;;;;;;;27.10;94.80;;;;;;5046968;28;20060;-82
2022/08/02 12:42:03;;;;;;;7.30;1.90;;;27.00;94.70;;;;;;5044046;28;19920;-81
2022/08/02 12:44:29;;;;;;;7.22;2.15;;;26.90;95.30;;;;;;5031086;28;20610;-81
2022/08/02 12:47:03;;;;;;;7.18;2.20;;;26.90;95.40;;;;;;5046637;28;20037;-80
2022/08/02 12:49:29;;;;;;;;;;;26.90;95.50;;;;;;5047780;28;20095;-80
2022/08/02 12:51:55;;;;;;;6.60;1.95;;;26.90;95.60;;;;;;5047151;28;19928;-80
2022/08/02 12:54:24;;;;;;;4.25;2.05;;;27.00;95.90;;;;;;5037687;28;20156;-81
2022/08/02 12:56:50;;;;;;;8.15;2.50;;;27.00;95.80;;;;;;5042724;28;20052;-81
2022/08/02 12:59:33;;;;;;;7.80;3.47;;;27.00;95.90;;;;;;5028318;28;20049;-84
2022/08/02 13:02:07;;;;;;;6.65;2.53;;;26.90;95.90;;;;;;5040265;28;20110;-83